sensor_id;sensor_type;location;lat;lon;timestamp;temperature;humidity
22456;DHT22;11395;53.204;6.502;2024-03-22T00:02:07;20.90;60.60
22456;DHT22;11395;53.204;6.502;2024-03-22T00:04:36;21.00;60.70
22456;DHT22;11395;53.204;6.502;2024-03-22T00:07:02;20.90;60.60
22456;DHT22;11395;53.204;6.502;2024-03-22T00:09:29;20.90;60.60
22456;DHT22;11395;53.204;6.502;2024-03-22T00:11:55;20.90;60.60
22456;DHT22;11395;53.204;6.502;2024-03-22T00:14:21;20.90;60.60
22456;DHT22;11395;53.204;6.502;2024-03-22T00:16:47;20.90;60.60
22456;DHT22;11395;53.204;6.502;2024-03-22T00:19:14;20.90;60.60
22456;DHT22;11395;53.204;6.502;2024-03-22T00:21:40;20.90;60.60
22456;DHT22;11395;53.204;6.502;2024-03-22T00:24:06;20.80;60.50
22456;DHT22;11395;53.204;6.502;2024-03-22T00:26:32;20.90;60.60
22456;DHT22;11395;53.204;6.502;2024-03-22T00:28:58;20.80;60.50
22456;DHT22;11395;53.204;6.502;2024-03-22T00:31:24;20.80;60.50
22456;DHT22;11395;53.204;6.502;2024-03-22T00:33:51;20.80;60.50
22456;DHT22;11395;53.204;6.502;2024-03-22T00:36:17;20.80;60.50
22456;DHT22;11395;53.204;6.502;2024-03-22T00:38:43;20.80;60.50
22456;DHT22;11395;53.204;6.502;2024-03-22T00:41:09;20.80;60.50
22456;DHT22;11395;53.204;6.502;2024-03-22T00:43:35;20.80;60.50
22456;DHT22;11395;53.204;6.502;2024-03-22T00:46:01;20.80;60.50
22456;DHT22;11395;53.204;6.502;2024-03-22T00:48:29;20.80;60.60
22456;DHT22;11395;53.204;6.502;2024-03-22T00:50:55;20.80;60.60
22456;DHT22;11395;53.204;6.502;2024-03-22T00:53:21;20.80;60.50
22456;DHT22;11395;53.204;6.502;2024-03-22T00:55:47;20.70;60.40
22456;DHT22;11395;53.204;6.502;2024-03-22T00:58:18;20.70;60.50
22456;DHT22;11395;53.204;6.502;2024-03-22T01:00:45;20.80;60.50
22456;DHT22;11395;53.204;6.502;2024-03-22T01:03:11;20.70;60.50
22456;DHT22;11395;53.204;6.502;2024-03-22T01:05:37;20.70;60.50
22456;DHT22;11395;53.204;6.502;2024-03-22T01:08:04;20.70;60.50
22456;DHT22;11395;53.204;6.502;2024-03-22T01:10:32;20.70;60.50
22456;DHT22;11395;53.204;6.502;2024-03-22T01:12:58;20.70;60.40
22456;DHT22;11395;53.204;6.502;2024-03-22T01:15:25;20.70;60.40
22456;DHT22;11395;53.204;6.502;2024-03-22T01:17:51;20.70;60.40
22456;DHT22;11395;53.204;6.502;2024-03-22T01:20:17;20.70;60.40
22456;DHT22;11395;53.204;6.502;2024-03-22T01:22:44;20.70;60.50
22456;DHT22;11395;53.204;6.502;2024-03-22T01:25:10;20.70;60.40
22456;DHT22;11395;53.204;6.502;2024-03-22T01:27:36;20.70;60.40
22456;DHT22;11395;53.204;6.502;2024-03-22T01:30:02;20.70;60.40
22456;DHT22;11395;53.204;6.502;2024-03-22T01:32:29;20.70;60.40
22456;DHT22;11395;53.204;6.502;2024-03-22T01:34:55;20.70;60.40
22456;DHT22;11395;53.204;6.502;2024-03-22T01:37:21;20.70;60.40
22456;DHT22;11395;53.204;6.502;2024-03-22T01:39:47;20.70;60.30
22456;DHT22;11395;53.204;6.502;2024-03-22T01:42:13;20.70;60.40
22456;DHT22;11395;53.204;6.502;2024-03-22T01:44:39;20.70;61.20
22456;DHT22;11395;53.204;6.502;2024-03-22T01:47:05;20.70;61.20
22456;DHT22;11395;53.204;6.502;2024-03-22T01:49:32;20.60;60.40
22456;DHT22;11395;53.204;6.502;2024-03-22T01:51:58;20.70;60.30
22456;DHT22;11395;53.204;6.502;2024-03-22T01:54:24;20.70;60.40
22456;DHT22;11395;53.204;6.502;2024-03-22T01:56:50;20.70;60.40
22456;DHT22;11395;53.204;6.502;2024-03-22T01:59:17;20.60;60.30
22456;DHT22;11395;53.204;6.502;2024-03-22T02:01:44;20.60;60.30
22456;DHT22;11395;53.204;6.502;2024-03-22T02:04:10;20.60;60.30
22456;DHT22;11395;53.204;6.502;2024-03-22T02:06:36;20.60;60.40
22456;DHT22;11395;53.204;6.502;2024-03-22T02:09:02;20.60;60.30
22456;DHT22;11395;53.204;6.502;2024-03-22T02:11:30;20.60;60.40
22456;DHT22;11395;53.204;6.502;2024-03-22T02:13:57;20.60;60.30
22456;DHT22;11395;53.204;6.502;2024-03-22T02:16:24;20.60;60.30
22456;DHT22;11395;53.204;6.502;2024-03-22T02:18:50;20.60;60.40
22456;DHT22;11395;53.204;6.502;2024-03-22T02:21:16;20.60;60.30
22456;DHT22;11395;53.204;6.502;2024-03-22T02:23:42;20.60;60.40
22456;DHT22;11395;53.204;6.502;2024-03-22T02:26:08;20.60;60.40
22456;DHT22;11395;53.204;6.502;2024-03-22T02:28:35;20.60;61.20
22456;DHT22;11395;53.204;6.502;2024-03-22T02:31:02;20.60;60.40
22456;DHT22;11395;53.204;6.502;2024-03-22T02:33:29;20.50;60.40
22456;DHT22;11395;53.204;6.502;2024-03-22T02:35:55;20.60;60.40
22456;DHT22;11395;53.204;6.502;2024-03-22T02:38:22;20.50;60.40
22456;DHT22;11395;53.204;6.502;2024-03-22T02:40:50;20.50;60.50
22456;DHT22;11395;53.204;6.502;2024-03-22T02:43:16;20.50;61.20
22456;DHT22;11395;53.204;6.502;2024-03-22T02:45:47;20.50;60.40
22456;DHT22;11395;53.204;6.502;2024-03-22T02:48:14;20.50;60.50
22456;DHT22;11395;53.204;6.502;2024-03-22T02:50:40;20.60;60.50
22456;DHT22;11395;53.204;6.502;2024-03-22T02:53:07;20.50;60.40
22456;DHT22;11395;53.204;6.502;2024-03-22T02:55:39;20.50;60.50
22456;DHT22;11395;53.204;6.502;2024-03-22T02:58:07;20.50;60.40
22456;DHT22;11395;53.204;6.502;2024-03-22T03:00:39;20.50;60.50
22456;DHT22;11395;53.204;6.502;2024-03-22T03:03:06;20.50;60.50
22456;DHT22;11395;53.204;6.502;2024-03-22T03:05:32;20.50;60.50
22456;DHT22;11395;53.204;6.502;2024-03-22T03:07:59;20.50;61.20
22456;DHT22;11395;53.204;6.502;2024-03-22T03:10:25;20.50;60.50
22456;DHT22;11395;53.204;6.502;2024-03-22T03:12:53;20.50;60.50
22456;DHT22;11395;53.204;6.502;2024-03-22T03:15:20;20.50;61.30
22456;DHT22;11395;53.204;6.502;2024-03-22T03:17:46;20.50;60.50
22456;DHT22;11395;53.204;6.502;2024-03-22T03:20:12;20.50;60.50
22456;DHT22;11395;53.204;6.502;2024-03-22T03:22:42;20.50;60.50
22456;DHT22;11395;53.204;6.502;2024-03-22T03:25:08;20.50;60.60
22456;DHT22;11395;53.204;6.502;2024-03-22T03:27:34;20.40;60.50
22456;DHT22;11395;53.204;6.502;2024-03-22T03:30:01;20.40;60.50
22456;DHT22;11395;53.204;6.502;2024-03-22T03:32:28;20.40;60.50
22456;DHT22;11395;53.204;6.502;2024-03-22T03:34:54;20.40;60.60
22456;DHT22;11395;53.204;6.502;2024-03-22T03:37:20;20.40;60.50
22456;DHT22;11395;53.204;6.502;2024-03-22T03:39:46;20.40;60.60
22456;DHT22;11395;53.204;6.502;2024-03-22T03:42:12;20.40;60.50
22456;DHT22;11395;53.204;6.502;2024-03-22T03:44:38;20.40;60.50
22456;DHT22;11395;53.204;6.502;2024-03-22T03:47:05;20.40;60.60
22456;DHT22;11395;53.204;6.502;2024-03-22T03:49:31;20.40;60.50
22456;DHT22;11395;53.204;6.502;2024-03-22T03:51:57;20.40;60.60
22456;DHT22;11395;53.204;6.502;2024-03-22T03:54:23;20.40;60.60
22456;DHT22;11395;53.204;6.502;2024-03-22T03:56:49;20.40;60.60
22456;DHT22;11395;53.204;6.502;2024-03-22T03:59:15;20.40;60.50
22456;DHT22;11395;53.204;6.502;2024-03-22T04:01:41;20.40;60.60
22456;DHT22;11395;53.204;6.502;2024-03-22T04:04:07;20.40;60.60
22456;DHT22;11395;53.204;6.502;2024-03-22T04:06:33;20.40;60.60
22456;DHT22;11395;53.204;6.502;2024-03-22T04:09:00;20.40;60.60
22456;DHT22;11395;53.204;6.502;2024-03-22T04:11:26;20.40;60.70
22456;DHT22;11395;53.204;6.502;2024-03-22T04:13:52;20.40;60.70
22456;DHT22;11395;53.204;6.502;2024-03-22T04:16:18;20.40;60.60
22456;DHT22;11395;53.204;6.502;2024-03-22T04:18:44;20.40;60.60
22456;DHT22;11395;53.204;6.502;2024-03-22T04:21:10;20.40;60.60
22456;DHT22;11395;53.204;6.502;2024-03-22T04:23:36;20.40;60.70
22456;DHT22;11395;53.204;6.502;2024-03-22T04:26:03;20.30;60.60
22456;DHT22;11395;53.204;6.502;2024-03-22T04:28:29;20.40;60.70
22456;DHT22;11395;53.204;6.502;2024-03-22T04:31:00;20.40;60.70
22456;DHT22;11395;53.204;6.502;2024-03-22T04:33:27;20.40;60.60
22456;DHT22;11395;53.204;6.502;2024-03-22T04:35:55;20.40;60.70
22456;DHT22;11395;53.204;6.502;2024-03-22T04:38:22;20.40;60.70
22456;DHT22;11395;53.204;6.502;2024-03-22T04:40:49;20.40;60.70
22456;DHT22;11395;53.204;6.502;2024-03-22T04:43:15;20.40;60.70
22456;DHT22;11395;53.204;6.502;2024-03-22T04:45:46;20.30;60.70
22456;DHT22;11395;53.204;6.502;2024-03-22T04:48:14;20.30;61.50
22456;DHT22;11395;53.204;6.502;2024-03-22T04:50:40;20.30;60.60
22456;DHT22;11395;53.204;6.502;2024-03-22T04:53:06;20.30;60.60
22456;DHT22;11395;53.204;6.502;2024-03-22T04:55:33;20.30;60.70
22456;DHT22;11395;53.204;6.502;2024-03-22T04:57:59;20.30;60.60
22456;DHT22;11395;53.204;6.502;2024-03-22T05:00:27;20.30;60.60
22456;DHT22;11395;53.204;6.502;2024-03-22T05:02:53;20.30;60.70
22456;DHT22;11395;53.204;6.502;2024-03-22T05:05:19;20.30;60.80
22456;DHT22;11395;53.204;6.502;2024-03-22T05:07:45;20.30;60.70
22456;DHT22;11395;53.204;6.502;2024-03-22T05:10:12;20.30;60.70
22456;DHT22;11395;53.204;6.502;2024-03-22T05:12:38;20.30;60.60
22456;DHT22;11395;53.204;6.502;2024-03-22T05:15:05;20.30;60.70
22456;DHT22;11395;53.204;6.502;2024-03-22T05:17:32;20.30;60.70
22456;DHT22;11395;53.204;6.502;2024-03-22T05:19:58;20.30;60.70
22456;DHT22;11395;53.204;6.502;2024-03-22T05:22:25;20.30;60.80
22456;DHT22;11395;53.204;6.502;2024-03-22T05:24:51;20.30;60.70
22456;DHT22;11395;53.204;6.502;2024-03-22T05:27:17;20.30;60.70
22456;DHT22;11395;53.204;6.502;2024-03-22T05:29:44;20.30;61.50
22456;DHT22;11395;53.204;6.502;2024-03-22T05:32:10;20.30;60.80
22456;DHT22;11395;53.204;6.502;2024-03-22T05:34:36;20.30;60.80
22456;DHT22;11395;53.204;6.502;2024-03-22T05:37:03;20.30;61.60
22456;DHT22;11395;53.204;6.502;2024-03-22T05:39:29;20.30;60.90
22456;DHT22;11395;53.204;6.502;2024-03-22T05:41:55;20.30;60.80
22456;DHT22;11395;53.204;6.502;2024-03-22T05:44:24;20.30;60.80
22456;DHT22;11395;53.204;6.502;2024-03-22T05:46:50;20.30;60.80
22456;DHT22;11395;53.204;6.502;2024-03-22T05:49:16;20.20;60.70
22456;DHT22;11395;53.204;6.502;2024-03-22T05:51:42;20.30;60.80
22456;DHT22;11395;53.204;6.502;2024-03-22T05:54:09;20.30;60.80
22456;DHT22;11395;53.204;6.502;2024-03-22T05:56:35;20.30;60.80
22456;DHT22;11395;53.204;6.502;2024-03-22T05:59:02;20.20;60.80
22456;DHT22;11395;53.204;6.502;2024-03-22T06:01:28;20.20;60.70
22456;DHT22;11395;53.204;6.502;2024-03-22T06:03:54;20.20;60.70
22456;DHT22;11395;53.204;6.502;2024-03-22T06:06:20;20.20;60.70
22456;DHT22;11395;53.204;6.502;2024-03-22T06:08:54;20.20;60.70
22456;DHT22;11395;53.204;6.502;2024-03-22T06:11:21;20.20;60.80
22456;DHT22;11395;53.204;6.502;2024-03-22T06:13:50;20.20;60.80
22456;DHT22;11395;53.204;6.502;2024-03-22T06:16:16;20.20;60.90
22456;DHT22;11395;53.204;6.502;2024-03-22T06:18:43;20.20;60.80
22456;DHT22;11395;53.204;6.502;2024-03-22T06:21:09;20.20;60.90
22456;DHT22;11395;53.204;6.502;2024-03-22T06:23:35;20.20;60.80
22456;DHT22;11395;53.204;6.502;2024-03-22T06:26:01;20.20;60.80
22456;DHT22;11395;53.204;6.502;2024-03-22T06:28:28;20.20;60.90
22456;DHT22;11395;53.204;6.502;2024-03-22T06:30:54;20.20;61.70
22456;DHT22;11395;53.204;6.502;2024-03-22T06:33:21;20.20;60.80
22456;DHT22;11395;53.204;6.502;2024-03-22T06:35:47;20.20;60.90
22456;DHT22;11395;53.204;6.502;2024-03-22T06:38:13;20.20;60.90
22456;DHT22;11395;53.204;6.502;2024-03-22T06:40:39;20.20;60.90
22456;DHT22;11395;53.204;6.502;2024-03-22T06:43:06;20.20;60.90
22456;DHT22;11395;53.204;6.502;2024-03-22T06:45:32;20.20;60.90
22456;DHT22;11395;53.204;6.502;2024-03-22T06:47:58;20.20;60.90
22456;DHT22;11395;53.204;6.502;2024-03-22T06:50:24;20.20;60.90
22456;DHT22;11395;53.204;6.502;2024-03-22T06:52:56;20.20;60.90
22456;DHT22;11395;53.204;6.502;2024-03-22T06:55:22;20.20;61.00
22456;DHT22;11395;53.204;6.502;2024-03-22T06:57:49;20.10;60.90
22456;DHT22;11395;53.204;6.502;2024-03-22T07:00:16;20.10;60.90
22456;DHT22;11395;53.204;6.502;2024-03-22T07:02:42;20.10;60.90
22456;DHT22;11395;53.204;6.502;2024-03-22T07:05:10;20.10;60.90
22456;DHT22;11395;53.204;6.502;2024-03-22T07:07:36;20.10;60.90
22456;DHT22;11395;53.204;6.502;2024-03-22T07:10:04;20.10;60.90
22456;DHT22;11395;53.204;6.502;2024-03-22T07:12:34;20.10;61.00
22456;DHT22;11395;53.204;6.502;2024-03-22T07:15:01;20.10;60.90
22456;DHT22;11395;53.204;6.502;2024-03-22T07:17:28;20.10;60.90
22456;DHT22;11395;53.204;6.502;2024-03-22T07:19:54;20.10;61.00
22456;DHT22;11395;53.204;6.502;2024-03-22T07:22:21;20.10;60.90
22456;DHT22;11395;53.204;6.502;2024-03-22T07:24:47;20.10;60.90
22456;DHT22;11395;53.204;6.502;2024-03-22T07:27:14;20.10;60.90
22456;DHT22;11395;53.204;6.502;2024-03-22T07:29:41;20.10;60.90
22456;DHT22;11395;53.204;6.502;2024-03-22T07:32:08;20.10;61.00
22456;DHT22;11395;53.204;6.502;2024-03-22T07:34:34;20.10;61.70
22456;DHT22;11395;53.204;6.502;2024-03-22T07:37:00;20.10;60.90
22456;DHT22;11395;53.204;6.502;2024-03-22T07:39:26;20.10;61.00
22456;DHT22;11395;53.204;6.502;2024-03-22T07:41:52;20.10;60.90
22456;DHT22;11395;53.204;6.502;2024-03-22T07:44:18;20.10;61.00
22456;DHT22;11395;53.204;6.502;2024-03-22T07:46:45;20.10;61.00
22456;DHT22;11395;53.204;6.502;2024-03-22T07:49:12;20.10;61.00
22456;DHT22;11395;53.204;6.502;2024-03-22T07:51:39;20.10;60.90
22456;DHT22;11395;53.204;6.502;2024-03-22T07:54:05;20.10;61.00
22456;DHT22;11395;53.204;6.502;2024-03-22T07:56:31;20.10;61.80
22456;DHT22;11395;53.204;6.502;2024-03-22T07:58:57;20.10;61.00
22456;DHT22;11395;53.204;6.502;2024-03-22T08:01:23;20.10;61.00
22456;DHT22;11395;53.204;6.502;2024-03-22T08:03:51;20.10;61.00
22456;DHT22;11395;53.204;6.502;2024-03-22T08:06:17;20.10;61.00
22456;DHT22;11395;53.204;6.502;2024-03-22T08:08:44;20.10;61.00
22456;DHT22;11395;53.204;6.502;2024-03-22T08:11:10;20.10;61.10
22456;DHT22;11395;53.204;6.502;2024-03-22T08:13:36;20.10;61.10
22456;DHT22;11395;53.204;6.502;2024-03-22T08:16:02;20.10;61.80
22456;DHT22;11395;53.204;6.502;2024-03-22T08:18:28;20.10;61.10
22456;DHT22;11395;53.204;6.502;2024-03-22T08:20:55;20.10;61.10
22456;DHT22;11395;53.204;6.502;2024-03-22T08:23:21;20.10;61.20
22456;DHT22;11395;53.204;6.502;2024-03-22T08:25:48;20.10;61.40
22456;DHT22;11395;53.204;6.502;2024-03-22T08:28:15;20.10;61.70
22456;DHT22;11395;53.204;6.502;2024-03-22T08:30:41;20.10;61.70
22456;DHT22;11395;53.204;6.502;2024-03-22T08:33:09;20.20;61.80
22456;DHT22;11395;53.204;6.502;2024-03-22T08:35:35;20.30;61.90
22456;DHT22;11395;53.204;6.502;2024-03-22T08:38:01;20.40;61.90
22456;DHT22;11395;53.204;6.502;2024-03-22T08:40:27;20.40;61.80
22456;DHT22;11395;53.204;6.502;2024-03-22T08:42:53;20.50;61.60
22456;DHT22;11395;53.204;6.502;2024-03-22T08:45:19;20.50;61.60
22456;DHT22;11395;53.204;6.502;2024-03-22T08:47:45;20.60;61.80
22456;DHT22;11395;53.204;6.502;2024-03-22T08:50:11;20.70;61.80
22456;DHT22;11395;53.204;6.502;2024-03-22T08:52:38;20.70;61.90
22456;DHT22;11395;53.204;6.502;2024-03-22T08:55:04;20.80;61.80
22456;DHT22;11395;53.204;6.502;2024-03-22T08:57:33;20.80;61.60
22456;DHT22;11395;53.204;6.502;2024-03-22T08:59:59;20.90;61.40
22456;DHT22;11395;53.204;6.502;2024-03-22T09:02:25;20.90;61.30
22456;DHT22;11395;53.204;6.502;2024-03-22T09:04:52;20.90;61.40
22456;DHT22;11395;53.204;6.502;2024-03-22T09:07:20;20.90;62.10
22456;DHT22;11395;53.204;6.502;2024-03-22T09:09:46;20.90;61.40
22456;DHT22;11395;53.204;6.502;2024-03-22T09:12:12;21.00;61.60
22456;DHT22;11395;53.204;6.502;2024-03-22T09:14:38;21.00;61.50
22456;DHT22;11395;53.204;6.502;2024-03-22T09:17:04;21.00;61.50
22456;DHT22;11395;53.204;6.502;2024-03-22T09:19:30;21.00;61.60
22456;DHT22;11395;53.204;6.502;2024-03-22T09:21:57;21.10;61.60
22456;DHT22;11395;53.204;6.502;2024-03-22T09:24:23;21.10;61.80
22456;DHT22;11395;53.204;6.502;2024-03-22T09:26:49;21.10;61.90
22456;DHT22;11395;53.204;6.502;2024-03-22T09:29:15;21.10;62.00
22456;DHT22;11395;53.204;6.502;2024-03-22T09:31:41;21.10;62.00
22456;DHT22;11395;53.204;6.502;2024-03-22T09:34:07;21.20;62.10
22456;DHT22;11395;53.204;6.502;2024-03-22T09:36:33;21.20;62.10
22456;DHT22;11395;53.204;6.502;2024-03-22T09:39:01;20.60;62.70
22456;DHT22;11395;53.204;6.502;2024-03-22T09:41:28;21.20;63.10
22456;DHT22;11395;53.204;6.502;2024-03-22T09:43:58;21.20;62.30
22456;DHT22;11395;53.204;6.502;2024-03-22T09:46:26;21.30;62.40
22456;DHT22;11395;53.204;6.502;2024-03-22T09:48:54;21.30;62.40
22456;DHT22;11395;53.204;6.502;2024-03-22T09:51:21;21.30;62.30
22456;DHT22;11395;53.204;6.502;2024-03-22T09:53:52;21.30;62.40
22456;DHT22;11395;53.204;6.502;2024-03-22T09:56:21;21.30;62.30
22456;DHT22;11395;53.204;6.502;2024-03-22T09:58:47;21.30;62.40
22456;DHT22;11395;53.204;6.502;2024-03-22T10:01:13;21.30;62.50
22456;DHT22;11395;53.204;6.502;2024-03-22T10:03:40;21.30;62.40
22456;DHT22;11395;53.204;6.502;2024-03-22T10:06:06;21.40;62.50
22456;DHT22;11395;53.204;6.502;2024-03-22T10:08:32;21.40;62.40
22456;DHT22;11395;53.204;6.502;2024-03-22T10:11:01;21.40;62.30
22456;DHT22;11395;53.204;6.502;2024-03-22T10:13:27;21.40;62.30
22456;DHT22;11395;53.204;6.502;2024-03-22T10:15:55;21.40;62.30
22456;DHT22;11395;53.204;6.502;2024-03-22T10:18:22;21.40;62.20
22456;DHT22;11395;53.204;6.502;2024-03-22T10:20:59;21.40;62.20
22456;DHT22;11395;53.204;6.502;2024-03-22T10:23:26;21.40;62.20
22456;DHT22;11395;53.204;6.502;2024-03-22T10:25:52;21.40;62.10
22456;DHT22;11395;53.204;6.502;2024-03-22T10:28:18;21.40;62.10
22456;DHT22;11395;53.204;6.502;2024-03-22T10:30:44;21.40;62.10
22456;DHT22;11395;53.204;6.502;2024-03-22T10:33:12;21.40;62.20
22456;DHT22;11395;53.204;6.502;2024-03-22T10:35:39;21.50;62.10
22456;DHT22;11395;53.204;6.502;2024-03-22T10:38:06;21.40;62.00
22456;DHT22;11395;53.204;6.502;2024-03-22T10:40:35;21.50;62.20
22456;DHT22;11395;53.204;6.502;2024-03-22T10:43:01;21.50;62.50
22456;DHT22;11395;53.204;6.502;2024-03-22T10:45:29;21.50;62.40
22456;DHT22;11395;53.204;6.502;2024-03-22T10:47:55;21.50;62.30
22456;DHT22;11395;53.204;6.502;2024-03-22T10:50:22;21.50;62.50
22456;DHT22;11395;53.204;6.502;2024-03-22T10:52:52;21.50;69.70
22456;DHT22;11395;53.204;6.502;2024-03-22T10:55:28;21.50;70.40
22456;DHT22;11395;53.204;6.502;2024-03-22T10:57:59;21.50;75.50
22456;DHT22;11395;53.204;6.502;2024-03-22T11:00:32;21.50;67.60
22456;DHT22;11395;53.204;6.502;2024-03-22T11:02:59;21.50;68.60
22456;DHT22;11395;53.204;6.502;2024-03-22T11:05:28;21.50;67.60
22456;DHT22;11395;53.204;6.502;2024-03-22T11:08:04;21.50;67.80
22456;DHT22;11395;53.204;6.502;2024-03-22T11:10:34;21.50;69.70
22456;DHT22;11395;53.204;6.502;2024-03-22T11:13:01;21.60;68.60
22456;DHT22;11395;53.204;6.502;2024-03-22T11:15:29;21.50;69.60
22456;DHT22;11395;53.204;6.502;2024-03-22T11:17:59;21.60;65.40
22456;DHT22;11395;53.204;6.502;2024-03-22T11:20:26;21.60;65.60
22456;DHT22;11395;53.204;6.502;2024-03-22T11:22:52;21.60;66.40
22456;DHT22;11395;53.204;6.502;2024-03-22T11:25:19;21.60;61.00
22456;DHT22;11395;53.204;6.502;2024-03-22T11:27:46;21.60;61.60
22456;DHT22;11395;53.204;6.502;2024-03-22T11:30:12;21.60;62.30
22456;DHT22;11395;53.204;6.502;2024-03-22T11:32:41;21.60;61.60
22456;DHT22;11395;53.204;6.502;2024-03-22T11:35:14;21.60;61.60
22456;DHT22;11395;53.204;6.502;2024-03-22T11:37:40;21.60;61.50
22456;DHT22;11395;53.204;6.502;2024-03-22T11:40:09;21.60;61.50
22456;DHT22;11395;53.204;6.502;2024-03-22T11:42:47;21.60;61.50
22456;DHT22;11395;53.204;6.502;2024-03-22T11:45:16;21.60;61.50
22456;DHT22;11395;53.204;6.502;2024-03-22T11:47:44;21.60;61.60
22456;DHT22;11395;53.204;6.502;2024-03-22T11:50:14;21.70;61.70
22456;DHT22;11395;53.204;6.502;2024-03-22T11:52:41;21.70;62.40
22456;DHT22;11395;53.204;6.502;2024-03-22T11:55:07;21.70;61.60
22456;DHT22;11395;53.204;6.502;2024-03-22T11:57:33;21.70;61.60
22456;DHT22;11395;53.204;6.502;2024-03-22T12:00:01;21.70;61.50
22456;DHT22;11395;53.204;6.502;2024-03-22T12:02:28;21.70;61.60
22456;DHT22;11395;53.204;6.502;2024-03-22T12:04:54;21.70;61.60
22456;DHT22;11395;53.204;6.502;2024-03-22T12:07:20;21.70;61.50
22456;DHT22;11395;53.204;6.502;2024-03-22T12:09:46;21.70;61.60
22456;DHT22;11395;53.204;6.502;2024-03-22T12:12:13;21.70;61.50
22456;DHT22;11395;53.204;6.502;2024-03-22T12:14:40;21.70;61.50
22456;DHT22;11395;53.204;6.502;2024-03-22T12:17:07;21.70;61.50
22456;DHT22;11395;53.204;6.502;2024-03-22T12:19:34;21.70;61.40
22456;DHT22;11395;53.204;6.502;2024-03-22T12:22:00;21.70;61.40
22456;DHT22;11395;53.204;6.502;2024-03-22T12:24:26;21.70;61.50
22456;DHT22;11395;53.204;6.502;2024-03-22T12:26:53;21.70;61.50
22456;DHT22;11395;53.204;6.502;2024-03-22T12:29:20;21.70;61.50
22456;DHT22;11395;53.204;6.502;2024-03-22T12:31:47;21.70;61.60
22456;DHT22;11395;53.204;6.502;2024-03-22T12:34:13;21.70;61.50
22456;DHT22;11395;53.204;6.502;2024-03-22T12:36:39;21.80;62.30
22456;DHT22;11395;53.204;6.502;2024-03-22T12:39:05;21.80;61.50
22456;DHT22;11395;53.204;6.502;2024-03-22T12:41:32;21.80;61.40
22456;DHT22;11395;53.204;6.502;2024-03-22T12:44:00;21.80;61.40
22456;DHT22;11395;53.204;6.502;2024-03-22T12:46:26;21.80;62.40
22456;DHT22;11395;53.204;6.502;2024-03-22T12:48:53;21.80;61.80
22456;DHT22;11395;53.204;6.502;2024-03-22T12:51:20;21.80;61.80
22456;DHT22;11395;53.204;6.502;2024-03-22T12:53:46;21.80;62.00
22456;DHT22;11395;53.204;6.502;2024-03-22T12:56:13;21.80;61.90
22456;DHT22;11395;53.204;6.502;2024-03-22T12:58:39;21.90;62.20
22456;DHT22;11395;53.204;6.502;2024-03-22T13:01:05;21.90;62.40
22456;DHT22;11395;53.204;6.502;2024-03-22T13:03:32;21.90;62.40
22456;DHT22;11395;53.204;6.502;2024-03-22T13:05:58;21.90;63.10
22456;DHT22;11395;53.204;6.502;2024-03-22T13:08:24;21.90;62.30
22456;DHT22;11395;53.204;6.502;2024-03-22T13:10:50;21.90;62.30
22456;DHT22;11395;53.204;6.502;2024-03-22T13:13:18;21.90;62.20
22456;DHT22;11395;53.204;6.502;2024-03-22T13:15:44;21.90;62.00
22456;DHT22;11395;53.204;6.502;2024-03-22T13:18:13;21.90;62.50
22456;DHT22;11395;53.204;6.502;2024-03-22T13:20:39;21.90;62.20
22456;DHT22;11395;53.204;6.502;2024-03-22T13:23:05;21.90;62.20
22456;DHT22;11395;53.204;6.502;2024-03-22T13:25:31;21.90;62.10
22456;DHT22;11395;53.204;6.502;2024-03-22T13:27:58;21.90;62.20
22456;DHT22;11395;53.204;6.502;2024-03-22T13:30:25;21.90;62.10
22456;DHT22;11395;53.204;6.502;2024-03-22T13:32:51;21.90;62.10
22456;DHT22;11395;53.204;6.502;2024-03-22T13:35:17;21.90;62.10
22456;DHT22;11395;53.204;6.502;2024-03-22T13:37:43;22.00;62.20
22456;DHT22;11395;53.204;6.502;2024-03-22T13:40:09;22.00;62.10
22456;DHT22;11395;53.204;6.502;2024-03-22T13:42:36;22.00;62.10
22456;DHT22;11395;53.204;6.502;2024-03-22T13:45:03;22.00;62.10
22456;DHT22;11395;53.204;6.502;2024-03-22T13:47:29;22.00;62.10
22456;DHT22;11395;53.204;6.502;2024-03-22T13:49:55;22.00;62.20
22456;DHT22;11395;53.204;6.502;2024-03-22T13:52:21;22.00;62.20
22456;DHT22;11395;53.204;6.502;2024-03-22T13:54:47;22.10;62.30
22456;DHT22;11395;53.204;6.502;2024-03-22T13:57:13;22.00;62.20
22456;DHT22;11395;53.204;6.502;2024-03-22T13:59:39;22.00;62.10
22456;DHT22;11395;53.204;6.502;2024-03-22T14:02:06;22.00;62.00
22456;DHT22;11395;53.204;6.502;2024-03-22T14:04:34;22.00;61.90
22456;DHT22;11395;53.204;6.502;2024-03-22T14:07:00;22.00;61.80
22456;DHT22;11395;53.204;6.502;2024-03-22T14:09:33;22.00;61.80
22456;DHT22;11395;53.204;6.502;2024-03-22T14:12:00;22.00;61.90
22456;DHT22;11395;53.204;6.502;2024-03-22T14:14:26;22.00;61.90
22456;DHT22;11395;53.204;6.502;2024-03-22T14:16:54;22.00;61.90
22456;DHT22;11395;53.204;6.502;2024-03-22T14:19:20;22.00;61.90
22456;DHT22;11395;53.204;6.502;2024-03-22T14:21:46;22.00;61.80
22456;DHT22;11395;53.204;6.502;2024-03-22T14:24:13;22.00;61.70
22456;DHT22;11395;53.204;6.502;2024-03-22T14:26:39;21.90;61.60
22456;DHT22;11395;53.204;6.502;2024-03-22T14:29:09;21.90;61.60
22456;DHT22;11395;53.204;6.502;2024-03-22T14:31:36;21.90;61.40
22456;DHT22;11395;53.204;6.502;2024-03-22T14:34:03;21.90;61.50
22456;DHT22;11395;53.204;6.502;2024-03-22T14:36:29;21.80;61.40
22456;DHT22;11395;53.204;6.502;2024-03-22T14:38:55;21.80;61.40
22456;DHT22;11395;53.204;6.502;2024-03-22T14:41:21;21.90;61.40
22456;DHT22;11395;53.204;6.502;2024-03-22T14:43:47;21.80;61.30
22456;DHT22;11395;53.204;6.502;2024-03-22T14:46:13;21.90;61.20
22456;DHT22;11395;53.204;6.502;2024-03-22T14:48:39;21.90;61.20
22456;DHT22;11395;53.204;6.502;2024-03-22T14:51:06;21.90;62.10
22456;DHT22;11395;53.204;6.502;2024-03-22T14:53:32;21.90;61.40
22456;DHT22;11395;53.204;6.502;2024-03-22T14:55:59;21.90;61.30
22456;DHT22;11395;53.204;6.502;2024-03-22T14:58:33;21.80;61.20
22456;DHT22;11395;53.204;6.502;2024-03-22T15:01:01;21.80;61.20
22456;DHT22;11395;53.204;6.502;2024-03-22T15:03:28;21.80;61.10
22456;DHT22;11395;53.204;6.502;2024-03-22T15:05:55;21.80;61.10
22456;DHT22;11395;53.204;6.502;2024-03-22T15:08:22;21.80;61.90
22456;DHT22;11395;53.204;6.502;2024-03-22T15:10:48;21.80;61.00
22456;DHT22;11395;53.204;6.502;2024-03-22T15:13:16;21.80;61.00
22456;DHT22;11395;53.204;6.502;2024-03-22T15:15:42;21.80;61.00
22456;DHT22;11395;53.204;6.502;2024-03-22T15:18:09;21.80;61.10
22456;DHT22;11395;53.204;6.502;2024-03-22T15:20:37;21.80;61.60
22456;DHT22;11395;53.204;6.502;2024-03-22T15:23:03;21.80;61.90
22456;DHT22;11395;53.204;6.502;2024-03-22T15:25:29;21.80;62.10
22456;DHT22;11395;53.204;6.502;2024-03-22T15:27:55;21.70;62.90